sensor_id;sensor_type;location;lat;lon;timestamp;P1;P2;P0
33948;PMS7003;20229;49.856;19.030;2024-03-23T00:55:06;13;10;6
33948;PMS7003;20229;49.856;19.030;2024-03-23T01:00:21;12;11;7
33948;PMS7003;20229;49.856;19.030;2024-03-23T01:05:37;13;11;6
33948;PMS7003;20229;49.856;19.030;2024-03-23T01:10:56;11;10;5
33948;PMS7003;20229;49.856;19.030;2024-03-23T01:16:11;12;10;5
33948;PMS7003;20229;49.856;19.030;2024-03-23T01:21:25;11;10;6
33948;PMS7003;20229;49.856;19.030;2024-03-23T01:26:38;11;11;7
33948;PMS7003;20229;49.856;19.030;2024-03-23T01:31:53;12;10;6
33948;PMS7003;20229;49.856;19.030;2024-03-23T01:37:07;10;7;5
33948;PMS7003;20229;49.856;19.030;2024-03-23T01:42:21;10;9;5
33948;PMS7003;20229;49.856;19.030;2024-03-23T01:47:35;9;7;4
33948;PMS7003;20229;49.856;19.030;2024-03-23T01:52:49;12;8;5
33948;PMS7003;20229;49.856;19.030;2024-03-23T01:58:04;11;10;6
33948;PMS7003;20229;49.856;19.030;2024-03-23T02:03:27;11;10;5
33948;PMS7003;20229;49.856;19.030;2024-03-23T02:09:11;11;9;5
33948;PMS7003;20229;49.856;19.030;2024-03-23T02:14:26;12;9;6
33948;PMS7003;20229;49.856;19.030;2024-03-23T02:19:41;10;9;5
33948;PMS7003;20229;49.856;19.030;2024-03-23T02:24:57;12;11;7
33948;PMS7003;20229;49.856;19.030;2024-03-23T02:30:11;12;11;7
33948;PMS7003;20229;49.856;19.030;2024-03-23T02:35:25;12;10;6
33948;PMS7003;20229;49.856;19.030;2024-03-23T02:40:39;10;9;7
33948;PMS7003;20229;49.856;19.030;2024-03-23T02:45:54;9;9;6
33948;PMS7003;20229;49.856;19.030;2024-03-23T02:51:08;12;11;7
33948;PMS7003;20229;49.856;19.030;2024-03-23T02:56:22;12;11;7
33948;PMS7003;20229;49.856;19.030;2024-03-23T03:01:36;14;12;7
33948;PMS7003;20229;49.856;19.030;2024-03-23T03:06:50;14;13;8
33948;PMS7003;20229;49.856;19.030;2024-03-23T03:12:04;11;9;6
33948;PMS7003;20229;49.856;19.030;2024-03-23T03:17:19;13;12;8
33948;PMS7003;20229;49.856;19.030;2024-03-23T03:22:33;13;10;6
33948;PMS7003;20229;49.856;19.030;2024-03-23T03:27:47;12;10;6
33948;PMS7003;20229;49.856;19.030;2024-03-23T03:33:00;12;11;6
33948;PMS7003;20229;49.856;19.030;2024-03-23T03:38:14;11;10;6
33948;PMS7003;20229;49.856;19.030;2024-03-23T03:43:33;8;8;5
33948;PMS7003;20229;49.856;19.030;2024-03-23T03:48:51;12;9;4
33948;PMS7003;20229;49.856;19.030;2024-03-23T03:54:04;11;10;6
33948;PMS7003;20229;49.856;19.030;2024-03-23T03:59:19;10;9;7
33948;PMS7003;20229;49.856;19.030;2024-03-23T04:04:33;9;8;6
33948;PMS7003;20229;49.856;19.030;2024-03-23T04:09:48;10;9;5
33948;PMS7003;20229;49.856;19.030;2024-03-23T04:15:03;14;10;6
33948;PMS7003;20229;49.856;19.030;2024-03-23T04:20:18;12;9;6
33948;PMS7003;20229;49.856;19.030;2024-03-23T04:25:32;14;11;6
33948;PMS7003;20229;49.856;19.030;2024-03-23T04:30:45;16;13;8
33948;PMS7003;20229;49.856;19.030;2024-03-23T04:35:59;15;13;8
33948;PMS7003;20229;49.856;19.030;2024-03-23T04:41:14;15;12;7
33948;PMS7003;20229;49.856;19.030;2024-03-23T04:46:28;15;12;8
33948;PMS7003;20229;49.856;19.030;2024-03-23T04:51:46;11;10;7
33948;PMS7003;20229;49.856;19.030;2024-03-23T04:57:00;12;12;8
33948;PMS7003;20229;49.856;19.030;2024-03-23T05:02:15;17;14;8
33948;PMS7003;20229;49.856;19.030;2024-03-23T05:07:29;12;11;6
33948;PMS7003;20229;49.856;19.030;2024-03-23T05:12:43;14;12;7
33948;PMS7003;20229;49.856;19.030;2024-03-23T05:17:58;14;11;6
33948;PMS7003;20229;49.856;19.030;2024-03-23T05:23:12;11;10;6
33948;PMS7003;20229;49.856;19.030;2024-03-23T05:28:26;12;10;6
33948;PMS7003;20229;49.856;19.030;2024-03-23T05:33:40;13;11;5
33948;PMS7003;20229;49.856;19.030;2024-03-23T05:38:54;10;9;6
33948;PMS7003;20229;49.856;19.030;2024-03-23T05:44:09;9;7;5
33948;PMS7003;20229;49.856;19.030;2024-03-23T05:49:24;40;28;18
33948;PMS7003;20229;49.856;19.030;2024-03-23T05:54:39;37;30;18
33948;PMS7003;20229;49.856;19.030;2024-03-23T05:59:53;35;29;16
33948;PMS7003;20229;49.856;19.030;2024-03-23T06:05:07;32;27;18
33948;PMS7003;20229;49.856;19.030;2024-03-23T06:10:21;30;25;16
33948;PMS7003;20229;49.856;19.030;2024-03-23T06:15:36;32;27;17
33948;PMS7003;20229;49.856;19.030;2024-03-23T06:20:51;38;30;19
33948;PMS7003;20229;49.856;19.030;2024-03-23T06:26:05;37;30;19
33948;PMS7003;20229;49.856;19.030;2024-03-23T06:31:19;36;29;18
33948;PMS7003;20229;49.856;19.030;2024-03-23T06:36:35;39;32;19
33948;PMS7003;20229;49.856;19.030;2024-03-23T06:41:52;39;32;19
33948;PMS7003;20229;49.856;19.030;2024-03-23T06:47:07;36;30;19
33948;PMS7003;20229;49.856;19.030;2024-03-23T06:52:20;35;28;17
33948;PMS7003;20229;49.856;19.030;2024-03-23T06:57:35;35;28;18
33948;PMS7003;20229;49.856;19.030;2024-03-23T07:02:49;38;29;18
33948;PMS7003;20229;49.856;19.030;2024-03-23T07:08:04;35;29;19
33948;PMS7003;20229;49.856;19.030;2024-03-23T07:13:19;39;33;20
33948;PMS7003;20229;49.856;19.030;2024-03-23T07:18:33;45;34;20
33948;PMS7003;20229;49.856;19.030;2024-03-23T07:23:47;41;31;19
33948;PMS7003;20229;49.856;19.030;2024-03-23T07:29:01;31;26;17
33948;PMS7003;20229;49.856;19.030;2024-03-23T07:34:16;35;29;17
33948;PMS7003;20229;49.856;19.030;2024-03-23T07:39:31;34;27;16
33948;PMS7003;20229;49.856;19.030;2024-03-23T07:44:50;28;25;15
33948;PMS7003;20229;49.856;19.030;2024-03-23T07:50:04;22;19;11
33948;PMS7003;20229;49.856;19.030;2024-03-23T07:55:19;13;11;7
33948;PMS7003;20229;49.856;19.030;2024-03-23T08:00:35;11;10;7
33948;PMS7003;20229;49.856;19.030;2024-03-23T08:05:49;9;8;5
33948;PMS7003;20229;49.856;19.030;2024-03-23T08:11:03;10;8;5
33948;PMS7003;20229;49.856;19.030;2024-03-23T08:16:17;10;10;6
33948;PMS7003;20229;49.856;19.030;2024-03-23T08:21:32;9;9;5
33948;PMS7003;20229;49.856;19.030;2024-03-23T08:26:45;7;7;5
33948;PMS7003;20229;49.856;19.030;2024-03-23T08:31:59;9;8;4
33948;PMS7003;20229;49.856;19.030;2024-03-23T08:37:14;11;8;5
33948;PMS7003;20229;49.856;19.030;2024-03-23T08:42:27;10;9;5
33948;PMS7003;20229;49.856;19.030;2024-03-23T08:47:42;9;8;5
33948;PMS7003;20229;49.856;19.030;2024-03-23T08:52:56;8;7;4
33948;PMS7003;20229;49.856;19.030;2024-03-23T08:58:09;10;8;5
33948;PMS7003;20229;49.856;19.030;2024-03-23T09:08:45;9;8;5
33948;PMS7003;20229;49.856;19.030;2024-03-23T09:14:02;8;7;5
33948;PMS7003;20229;49.856;19.030;2024-03-23T09:19:17;10;9;5
33948;PMS7003;20229;49.856;19.030;2024-03-23T09:24:31;10;9;6
33948;PMS7003;20229;49.856;19.030;2024-03-23T09:29:45;8;7;5
33948;PMS7003;20229;49.856;19.030;2024-03-23T09:34:59;9;7;4
33948;PMS7003;20229;49.856;19.030;2024-03-23T09:40:13;7;6;4
33948;PMS7003;20229;49.856;19.030;2024-03-23T09:45:27;9;8;4
33948;PMS7003;20229;49.856;19.030;2024-03-23T09:52:14;8;8;4
33948;PMS7003;20229;49.856;19.030;2024-03-23T09:57:39;11;9;6
33948;PMS7003;20229;49.856;19.030;2024-03-23T10:02:57;9;9;5
33948;PMS7003;20229;49.856;19.030;2024-03-23T10:08:19;11;10;7
33948;PMS7003;20229;49.856;19.030;2024-03-23T10:13:34;8;7;5
33948;PMS7003;20229;49.856;19.030;2024-03-23T10:18:48;11;9;7
33948;PMS7003;20229;49.856;19.030;2024-03-23T10:24:08;10;10;8
33948;PMS7003;20229;49.856;19.030;2024-03-23T10:29:22;9;9;6
33948;PMS7003;20229;49.856;19.030;2024-03-23T10:34:37;10;9;6
33948;PMS7003;20229;49.856;19.030;2024-03-23T10:39:51;11;9;6
33948;PMS7003;20229;49.856;19.030;2024-03-23T10:45:06;9;9;6
33948;PMS7003;20229;49.856;19.030;2024-03-23T10:50:20;9;8;5
33948;PMS7003;20229;49.856;19.030;2024-03-23T10:55:35;9;8;6
33948;PMS7003;20229;49.856;19.030;2024-03-23T11:00:49;11;10;6
33948;PMS7003;20229;49.856;19.030;2024-03-23T11:06:04;10;8;5
33948;PMS7003;20229;49.856;19.030;2024-03-23T11:11:21;12;10;8
33948;PMS7003;20229;49.856;19.030;2024-03-23T11:16:37;7;7;5
33948;PMS7003;20229;49.856;19.030;2024-03-23T11:21:53;7;6;4
33948;PMS7003;20229;49.856;19.030;2024-03-23T11:32:31;8;7;5
33948;PMS7003;20229;49.856;19.030;2024-03-23T11:37:46;6;5;5
33948;PMS7003;20229;49.856;19.030;2024-03-23T11:43:00;11;6;5
33948;PMS7003;20229;49.856;19.030;2024-03-23T11:48:18;4;3;2
33948;PMS7003;20229;49.856;19.030;2024-03-23T11:53:33;5;4;3
33948;PMS7003;20229;49.856;19.030;2024-03-23T11:58:49;3;3;3
33948;PMS7003;20229;49.856;19.030;2024-03-23T12:04:06;5;5;3
33948;PMS7003;20229;49.856;19.030;2024-03-23T12:09:19;3;3;2
33948;PMS7003;20229;49.856;19.030;2024-03-23T12:14:34;7;6;4
33948;PMS7003;20229;49.856;19.030;2024-03-23T12:19:48;6;5;4
33948;PMS7003;20229;49.856;19.030;2024-03-23T12:25:02;5;5;3
33948;PMS7003;20229;49.856;19.030;2024-03-23T12:30:17;6;5;4
33948;PMS7003;20229;49.856;19.030;2024-03-23T12:35:30;5;5;4
33948;PMS7003;20229;49.856;19.030;2024-03-23T12:40:47;8;7;4
33948;PMS7003;20229;49.856;19.030;2024-03-23T12:46:02;6;6;4
33948;PMS7003;20229;49.856;19.030;2024-03-23T12:51:16;6;6;4
33948;PMS7003;20229;49.856;19.030;2024-03-23T12:56:30;6;6;4
33948;PMS7003;20229;49.856;19.030;2024-03-23T13:01:44;4;4;3
33948;PMS7003;20229;49.856;19.030;2024-03-23T13:06:58;7;6;5
33948;PMS7003;20229;49.856;19.030;2024-03-23T13:12:13;8;5;4
33948;PMS7003;20229;49.856;19.030;2024-03-23T13:17:28;10;7;6
33948;PMS7003;20229;49.856;19.030;2024-03-23T13:22:43;6;6;4
33948;PMS7003;20229;49.856;19.030;2024-03-23T13:27:58;7;6;4
33948;PMS7003;20229;49.856;19.030;2024-03-23T13:33:11;6;6;4
33948;PMS7003;20229;49.856;19.030;2024-03-23T13:38:27;4;4;3
33948;PMS7003;20229;49.856;19.030;2024-03-23T13:43:41;7;6;4
33948;PMS7003;20229;49.856;19.030;2024-03-23T13:48:55;6;5;4
33948;PMS7003;20229;49.856;19.030;2024-03-23T13:54:09;8;5;4
33948;PMS7003;20229;49.856;19.030;2024-03-23T13:59:24;2;1;1
33948;PMS7003;20229;49.856;19.030;2024-03-23T14:04:38;2;2;1
33948;PMS7003;20229;49.856;19.030;2024-03-23T14:09:52;1;1;1
33948;PMS7003;20229;49.856;19.030;2024-03-23T14:15:09;2;2;0
33948;PMS7003;20229;49.856;19.030;2024-03-23T14:20:23;2;2;1
33948;PMS7003;20229;49.856;19.030;2024-03-23T14:25:45;2;2;0
33948;PMS7003;20229;49.856;19.030;2024-03-23T14:30:59;7;6;4
33948;PMS7003;20229;49.856;19.030;2024-03-23T14:36:13;6;5;3
33948;PMS7003;20229;49.856;19.030;2024-03-23T14:41:27;4;4;2
33948;PMS7003;20229;49.856;19.030;2024-03-23T14:46:41;2;2;0
33948;PMS7003;20229;49.856;19.030;2024-03-23T14:51:56;1;1;0
33948;PMS7003;20229;49.856;19.030;2024-03-23T14:57:10;2;1;0
33948;PMS7003;20229;49.856;19.030;2024-03-23T15:02:24;2;1;0
33948;PMS7003;20229;49.856;19.030;2024-03-23T15:07:41;1;1;0
33948;PMS7003;20229;49.856;19.030;2024-03-23T15:12:55;1;1;0
33948;PMS7003;20229;49.856;19.030;2024-03-23T15:18:12;3;2;2
33948;PMS7003;20229;49.856;19.030;2024-03-23T15:23:28;0;0;0
33948;PMS7003;20229;49.856;19.030;2024-03-23T15:28:43;2;0;0
33948;PMS7003;20229;49.856;19.030;2024-03-23T15:34:12;2;1;0
33948;PMS7003;20229;49.856;19.030;2024-03-23T15:39:26;1;1;0
33948;PMS7003;20229;49.856;19.030;2024-03-23T15:44:41;35;29;20
33948;PMS7003;20229;49.856;19.030;2024-03-23T15:49:55;75;68;40
33948;PMS7003;20229;49.856;19.030;2024-03-23T15:55:12;5;5;4
33948;PMS7003;20229;49.856;19.030;2024-03-23T16:00:26;4;4;3
33948;PMS7003;20229;49.856;19.030;2024-03-23T16:05:41;4;4;3
33948;PMS7003;20229;49.856;19.030;2024-03-23T16:10:59;6;6;4
33948;PMS7003;20229;49.856;19.030;2024-03-23T16:16:13;3;3;1
33948;PMS7003;20229;49.856;19.030;2024-03-23T16:21:29;5;3;2
33948;PMS7003;20229;49.856;19.030;2024-03-23T16:26:44;5;4;3
33948;PMS7003;20229;49.856;19.030;2024-03-23T16:31:58;12;11;8
33948;PMS7003;20229;49.856;19.030;2024-03-23T16:37:12;3;3;1
33948;PMS7003;20229;49.856;19.030;2024-03-23T16:42:26;12;8;5
33948;PMS7003;20229;49.856;19.030;2024-03-23T16:47:41;18;16;10
33948;PMS7003;20229;49.856;19.030;2024-03-23T16:52:57;2;2;1
33948;PMS7003;20229;49.856;19.030;2024-03-23T16:58:12;4;3;2
33948;PMS7003;20229;49.856;19.030;2024-03-23T17:03:27;7;6;3
33948;PMS7003;20229;49.856;19.030;2024-03-23T17:08:41;5;4;3
33948;PMS7003;20229;49.856;19.030;2024-03-23T17:13:56;6;5;2
33948;PMS7003;20229;49.856;19.030;2024-03-23T17:19:10;4;4;3
33948;PMS7003;20229;49.856;19.030;2024-03-23T17:24:24;5;4;2
33948;PMS7003;20229;49.856;19.030;2024-03-23T17:29:39;10;9;6
33948;PMS7003;20229;49.856;19.030;2024-03-23T17:34:55;22;20;12
33948;PMS7003;20229;49.856;19.030;2024-03-23T17:40:09;11;9;5
33948;PMS7003;20229;49.856;19.030;2024-03-23T17:45:25;30;26;17
33948;PMS7003;20229;49.856;19.030;2024-03-23T17:50:39;6;5;3
33948;PMS7003;20229;49.856;19.030;2024-03-23T17:55:53;25;22;15
33948;PMS7003;20229;49.856;19.030;2024-03-23T18:01:07;28;25;17
33948;PMS7003;20229;49.856;19.030;2024-03-23T18:06:22;26;23;16
33948;PMS7003;20229;49.856;19.030;2024-03-23T18:11:36;9;9;5
33948;PMS7003;20229;49.856;19.030;2024-03-23T18:16:50;10;10;6
33948;PMS7003;20229;49.856;19.030;2024-03-23T18:22:04;7;6;4
33948;PMS7003;20229;49.856;19.030;2024-03-23T18:27:17;21;19;14
33948;PMS7003;20229;49.856;19.030;2024-03-23T18:32:32;7;7;4
33948;PMS7003;20229;49.856;19.030;2024-03-23T18:37:50;10;9;7
33948;PMS7003;20229;49.856;19.030;2024-03-23T18:43:06;7;6;4
33948;PMS7003;20229;49.856;19.030;2024-03-23T18:48:21;18;15;8
33948;PMS7003;20229;49.856;19.030;2024-03-23T18:53:35;1;0;0
33948;PMS7003;20229;49.856;19.030;2024-03-23T18:58:49;8;8;5
33948;PMS7003;20229;49.856;19.030;2024-03-23T19:04:03;9;9;5
33948;PMS7003;20229;49.856;19.030;2024-03-23T19:09:17;15;15;9
33948;PMS7003;20229;49.856;19.030;2024-03-23T19:14:30;12;11;7
33948;PMS7003;20229;49.856;19.030;2024-03-23T19:19:44;13;12;8
33948;PMS7003;20229;49.856;19.030;2024-03-23T19:24:59;9;7;5
33948;PMS7003;20229;49.856;19.030;2024-03-23T19:30:13;13;12;9
33948;PMS7003;20229;49.856;19.030;2024-03-23T19:35:30;22;21;16
33948;PMS7003;20229;49.856;19.030;2024-03-23T19:40:51;29;27;19
33948;PMS7003;20229;49.856;19.030;2024-03-23T19:46:09;6;6;4
33948;PMS7003;20229;49.856;19.030;2024-03-23T19:51:22;7;7;4
33948;PMS7003;20229;49.856;19.030;2024-03-23T19:56:36;7;6;4
33948;PMS7003;20229;49.856;19.030;2024-03-23T20:01:53;7;7;4
33948;PMS7003;20229;49.856;19.030;2024-03-23T20:07:07;9;8;5
33948;PMS7003;20229;49.856;19.030;2024-03-23T20:12:20;7;6;4
33948;PMS7003;20229;49.856;19.030;2024-03-23T20:17:34;15;14;9
33948;PMS7003;20229;49.856;19.030;2024-03-23T20:22:48;10;9;5
33948;PMS7003;20229;49.856;19.030;2024-03-23T20:28:02;9;7;4
33948;PMS7003;20229;49.856;19.030;2024-03-23T20:33:16;9;7;4
33948;PMS7003;20229;49.856;19.030;2024-03-23T20:38:35;3;3;2
33948;PMS7003;20229;49.856;19.030;2024-03-23T20:43:49;7;5;2
33948;PMS7003;20229;49.856;19.030;2024-03-23T20:49:03;7;7;3
33948;PMS7003;20229;49.856;19.030;2024-03-23T20:54:19;5;5;2
33948;PMS7003;20229;49.856;19.030;2024-03-23T20:59:34;10;9;6
33948;PMS7003;20229;49.856;19.030;2024-03-23T21:04:48;15;13;7
33948;PMS7003;20229;49.856;19.030;2024-03-23T21:10:02;14;12;6
33948;PMS7003;20229;49.856;19.030;2024-03-23T21:15:17;11;9;6
33948;PMS7003;20229;49.856;19.030;2024-03-23T21:20:31;12;10;6
33948;PMS7003;20229;49.856;19.030;2024-03-23T21:25:45;16;13;9
33948;PMS7003;20229;49.856;19.030;2024-03-23T21:31:03;25;17;11
33948;PMS7003;20229;49.856;19.030;2024-03-23T21:36:18;21;16;9
33948;PMS7003;20229;49.856;19.030;2024-03-23T21:41:33;14;11;6
33948;PMS7003;20229;49.856;19.030;2024-03-23T21:46:47;14;10;7
33948;PMS7003;20229;49.856;19.030;2024-03-23T21:52:01;7;7;4
33948;PMS7003;20229;49.856;19.030;2024-03-23T21:57:17;10;9;5
33948;PMS7003;20229;49.856;19.030;2024-03-23T22:02:34;15;11;5
33948;PMS7003;20229;49.856;19.030;2024-03-23T22:07:48;18;16;11
33948;PMS7003;20229;49.856;19.030;2024-03-23T22:13:02;16;14;8
33948;PMS7003;20229;49.856;19.030;2024-03-23T22:18:16;21;18;11
33948;PMS7003;20229;49.856;19.030;2024-03-23T22:23:31;20;16;11
33948;PMS7003;20229;49.856;19.030;2024-03-23T22:28:48;20;17;11
33948;PMS7003;20229;49.856;19.030;2024-03-23T22:34:02;13;11;7
33948;PMS7003;20229;49.856;19.030;2024-03-23T22:39:17;12;10;6
33948;PMS7003;20229;49.856;19.030;2024-03-23T22:44:32;13;12;8
33948;PMS7003;20229;49.856;19.030;2024-03-23T22:49:46;14;13;8
33948;PMS7003;20229;49.856;19.030;2024-03-23T22:55:00;12;10;7
33948;PMS7003;20229;49.856;19.030;2024-03-23T23:00:14;19;16;10
33948;PMS7003;20229;49.856;19.030;2024-03-23T23:05:31;15;14;9
33948;PMS7003;20229;49.856;19.030;2024-03-23T23:10:46;16;13;9
33948;PMS7003;20229;49.856;19.030;2024-03-23T23:16:00;14;12;7
33948;PMS7003;20229;49.856;19.030;2024-03-23T23:21:14;12;10;6
33948;PMS7003;20229;49.856;19.030;2024-03-23T23:26:28;10;9;5
33948;PMS7003;20229;49.856;19.030;2024-03-23T23:31:41;11;10;6
33948;PMS7003;20229;49.856;19.030;2024-03-23T23:37:02;8;8;5
33948;PMS7003;20229;49.856;19.030;2024-03-23T23:42:16;7;6;4
33948;PMS7003;20229;49.856;19.030;2024-03-23T23:47:33;11;9;5
33948;PMS7003;20229;49.856;19.030;2024-03-23T23:52:49;10;8;4
33948;PMS7003;20229;49.856;19.030;2024-03-23T23:58:03;13;12;8
